Anucino, Russia

11:07 AM VLAT on March 29, 2015 (GMT +1000)
Knevichi | | Change Station
CLOSE
Current Station
Airport
Location: Vladivostok,
Elevation: 46 ft
Nearby Weather Stations

Elev 46 ft 43.40 °N, 132.15 °E | Updated 37 minutes ago

Haze
Haze
46 °F
Feels Like 40 °F
N
13
Wind Variable Wind from NNE

Today
High -- | Low -- °F
--% Chance of Precip.
Yesterday
High -- | Low -- °F
Precip. -- in
6:56 AM 7:30 PM
Waxing Gibbous, 67% visible
Pressure 29.98 in
Visibility 3.1 miles
Clouds Mostly Cloudy 2600 ft
Windchill 40 °F
Dew Point 32 °F
Humidity 57%
Rainfall 0.00 in
Snow Depth Not available.
UV 2 out of 12
Pollen Not available.
Air Quality Not available.
Flu Activity Not available.
METAR UHWW 290030Z 02006MPS 5000 HZ BKN026 08/00 Q1015 NOSIG RMK QFE760/1014 57CLRD70

More Conditions Fewer Conditions

Pressure 29.98 in
Visibility 3.1 miles
Clouds Mostly Cloudy 2600 ft
Windchill 40 °F
Dew Point 32 °F
Humidity 57%
Rainfall 0.00 in
Snow Depth Not available.
UV 2 out of 12
Pollen Not available.
Air Quality Not available.
Flu Activity Not available.
METAR UHWW 290030Z 02006MPS 5000 HZ BKN026 08/00 Q1015 NOSIG RMK QFE760/1014 57CLRD70

More Conditions Fewer Conditions

10-Day Weather Forecast

Almanac

Astronomy

Mar. 29, 2015 Rise Set
Actual Time
Civil Twilight
Nautical Twilight
Astronomical Twilight
Moon
Length of Visible Light
Length of Day
Tomorrow will be .
, % of the Moon is Illuminated

Today's Extremes

Country Highs Country Lows

Community

WunderPhotos

Upload Photos

1,809,140 photos uploaded!

WunderBlogs® & News

Nearby

Air Quality

  Air Quality AQ Index Pollutant
Not available.

Snow Depth

Station Depth Elevation

Earthquake Activity

City Distance Mag. Time & Date
Minimum magnitude displayed is 2.5.

Coastal Water Temperatures

Place Temperature

Stations

Nearby Weather Stations

Station Location Temp. Windchill Dew Point Humidity Wind Precip. Elev Updated Type